createdAt,value
2019-03-21T00:01:08.487Z,101215.00
2019-03-21T00:03:15.024Z,101218.00
2019-03-21T00:05:20.869Z,101218.00
2019-03-21T00:07:28.370Z,101216.00
2019-03-21T00:09:34.979Z,101221.00
2019-03-21T00:11:59.329Z,101219.00
2019-03-21T00:14:21.210Z,101222.00
2019-03-21T00:16:27.159Z,101216.00
2019-03-21T00:18:33.180Z,101225.00
2019-03-21T00:20:39.260Z,101223.00
2019-03-21T00:22:45.516Z,101222.00
2019-03-21T00:24:51.785Z,101227.00
2019-03-21T00:26:57.812Z,101225.00
2019-03-21T00:29:03.662Z,101227.00
2019-03-21T00:31:10.195Z,101213.00
2019-03-21T00:33:16.545Z,101233.00
2019-03-21T00:35:22.643Z,101239.00
2019-03-21T00:37:28.661Z,101227.00
2019-03-21T00:39:35.039Z,101231.00
2019-03-21T00:41:41.435Z,101219.00
2019-03-21T00:43:47.505Z,101230.00
2019-03-21T00:45:53.660Z,101227.00
2019-03-21T00:47:59.501Z,101225.00
2019-03-21T00:50:05.629Z,101223.00
2019-03-21T00:52:11.482Z,101224.00
2019-03-21T00:54:18.018Z,101222.00
2019-03-21T00:56:26.143Z,101214.00
2019-03-21T00:58:32.346Z,101212.00
2019-03-21T01:00:43.084Z,101217.00
2019-03-21T01:03:08.452Z,101210.00
2019-03-21T01:05:14.691Z,101207.00
2019-03-21T01:07:21.152Z,101198.00
2019-03-21T01:09:46.433Z,101207.00
2019-03-21T01:11:52.905Z,101210.00
2019-03-21T01:13:59.281Z,101198.00
2019-03-21T01:16:05.464Z,101205.00
2019-03-21T01:18:11.481Z,101196.00
2019-03-21T01:20:17.978Z,101193.00
2019-03-21T01:22:24.202Z,101192.00
2019-03-21T01:24:30.471Z,101192.00
2019-03-21T01:26:36.267Z,101192.00
2019-03-21T01:28:42.412Z,101199.00
2019-03-21T01:30:48.383Z,101190.00
2019-03-21T01:32:54.177Z,101194.00
2019-03-21T01:35:00.487Z,101201.00
2019-03-21T01:37:06.517Z,101199.00
2019-03-21T01:39:12.809Z,101201.00
2019-03-21T01:41:19.153Z,101196.00
2019-03-21T01:43:25.160Z,101200.00
2019-03-21T01:45:31.490Z,101197.00
2019-03-21T01:47:37.435Z,101192.00
2019-03-21T01:49:43.142Z,101192.00
2019-03-21T01:51:49.339Z,101180.00
2019-03-21T01:53:55.930Z,101188.00
2019-03-21T01:56:02.029Z,101183.00
2019-03-21T01:58:08.194Z,101184.00
2019-03-21T02:00:22.965Z,101184.00
2019-03-21T02:02:30.019Z,101180.00
2019-03-21T02:04:37.253Z,101176.00
2019-03-21T02:06:44.682Z,101184.00
2019-03-21T02:08:50.736Z,101180.00
2019-03-21T02:10:56.410Z,101183.00
2019-03-21T02:13:02.187Z,101188.00
2019-03-21T02:15:10.077Z,101184.00
2019-03-21T02:17:15.860Z,101181.00
2019-03-21T02:19:21.921Z,101178.00
2019-03-21T02:21:28.287Z,101174.00
2019-03-21T02:23:34.076Z,101175.00
2019-03-21T02:25:40.243Z,101174.00
2019-03-21T02:27:46.306Z,101179.00
2019-03-21T02:29:52.681Z,101163.00
2019-03-21T02:31:59.774Z,101168.00
2019-03-21T02:34:05.845Z,101164.00
2019-03-21T02:36:12.165Z,101165.00
2019-03-21T02:38:19.341Z,101174.00
2019-03-21T02:40:25.317Z,101172.00
2019-03-21T02:42:31.553Z,101165.00
2019-03-21T02:44:37.956Z,101174.00
2019-03-21T02:46:44.340Z,101172.00
2019-03-21T02:48:50.038Z,101168.00
2019-03-21T02:50:55.801Z,101164.00
2019-03-21T02:53:01.860Z,101159.00
2019-03-21T02:55:08.077Z,101168.00
2019-03-21T02:57:15.160Z,101170.00
2019-03-21T02:59:22.735Z,101179.00
2019-03-21T03:01:30.479Z,101179.00
2019-03-21T03:03:37.727Z,101182.00
2019-03-21T03:05:45.072Z,101176.00
2019-03-21T03:07:52.287Z,101178.00
2019-03-21T03:10:02.463Z,101173.00
2019-03-21T03:12:08.234Z,101172.00
2019-03-21T03:14:13.972Z,101172.00
2019-03-21T03:16:20.147Z,101172.00
2019-03-21T03:18:26.122Z,101179.00
2019-03-21T03:20:32.494Z,101172.00
2019-03-21T03:22:38.744Z,101184.00
2019-03-21T03:24:45.463Z,101174.00
2019-03-21T03:26:51.448Z,101166.00
2019-03-21T03:28:58.048Z,101165.00
2019-03-21T03:31:05.015Z,101166.00
2019-03-21T03:33:10.949Z,101170.00
2019-03-21T03:35:16.753Z,101180.00
2019-03-21T03:37:22.453Z,101177.00
2019-03-21T03:39:28.499Z,101172.00
2019-03-21T03:41:35.467Z,101174.00
2019-03-21T03:43:41.297Z,101176.00
2019-03-21T03:45:48.337Z,101184.00
2019-03-21T03:47:54.583Z,101177.00
2019-03-21T03:50:00.642Z,101179.00
2019-03-21T03:52:06.395Z,101178.00
2019-03-21T03:54:12.522Z,101190.00
2019-03-21T03:56:18.762Z,101190.00
2019-03-21T03:58:25.460Z,101186.00
2019-03-21T04:00:31.148Z,101182.00
2019-03-21T04:02:37.248Z,101179.00
2019-03-21T04:04:43.771Z,101180.00
2019-03-21T04:06:49.698Z,101190.00
2019-03-21T04:08:55.544Z,101188.00
2019-03-21T04:11:01.770Z,101185.00
2019-03-21T04:13:07.766Z,101184.00
2019-03-21T04:15:14.112Z,101194.00
2019-03-21T04:17:20.208Z,101199.00
2019-03-21T04:19:26.339Z,101186.00
2019-03-21T04:21:32.318Z,101200.00
2019-03-21T04:23:38.728Z,101189.00
2019-03-21T04:25:58.406Z,101195.00
2019-03-21T04:28:05.648Z,101192.00
2019-03-21T04:30:13.746Z,101192.00
2019-03-21T04:32:19.510Z,101192.00
2019-03-21T04:34:25.724Z,101186.00
2019-03-21T04:36:31.955Z,101191.00
2019-03-21T04:38:38.023Z,101192.00
2019-03-21T04:40:43.745Z,101195.00
2019-03-21T04:42:50.077Z,101190.00
2019-03-21T04:44:56.478Z,101185.00
2019-03-21T04:47:03.165Z,101180.00
2019-03-21T04:49:09.218Z,101185.00
2019-03-21T04:51:16.043Z,101172.00
2019-03-21T04:53:22.087Z,101179.00
2019-03-21T04:55:28.262Z,101182.00
2019-03-21T04:57:34.587Z,101181.00
2019-03-21T04:59:41.323Z,101185.00
2019-03-21T05:01:49.393Z,101182.00
2019-03-21T05:03:55.493Z,101190.00
2019-03-21T05:06:02.144Z,101198.00
2019-03-21T05:08:08.183Z,101192.00
2019-03-21T05:10:15.298Z,101195.00
2019-03-21T05:12:21.716Z,101197.00
2019-03-21T05:14:27.751Z,101196.00
2019-03-21T05:16:33.571Z,101193.00
2019-03-21T05:18:41.342Z,101200.00
2019-03-21T05:20:47.530Z,101200.00
2019-03-21T05:22:53.570Z,101208.00
2019-03-21T05:25:00.565Z,101197.00
2019-03-21T05:27:06.341Z,101207.00
2019-03-21T05:29:12.391Z,101205.00
2019-03-21T05:31:31.321Z,101205.00
2019-03-21T05:33:37.445Z,101201.00
2019-03-21T05:35:44.200Z,101215.00
2019-03-21T05:37:53.080Z,101204.00
2019-03-21T05:39:58.781Z,101209.00
2019-03-21T05:42:09.122Z,101218.00
2019-03-21T05:44:30.809Z,101211.00
2019-03-21T05:46:37.050Z,101221.00
2019-03-21T05:48:43.105Z,101220.00
2019-03-21T05:50:49.608Z,101215.00
2019-03-21T05:52:56.244Z,101219.00
2019-03-21T05:55:02.207Z,101215.00
2019-03-21T05:57:08.411Z,101228.00
2019-03-21T05:59:14.412Z,101222.00
2019-03-21T06:01:22.749Z,101217.00
2019-03-21T06:03:32.973Z,101223.00
2019-03-21T06:05:38.921Z,101220.00
2019-03-21T06:07:56.360Z,101215.00
2019-03-21T06:10:08.957Z,101218.00
2019-03-21T06:12:15.912Z,101225.00
2019-03-21T06:14:22.697Z,101223.00
2019-03-21T06:16:37.258Z,101220.00
2019-03-21T06:18:56.521Z,101229.00
2019-03-21T06:21:28.087Z,101231.00
2019-03-21T06:24:11.422Z,101232.00
2019-03-21T06:27:01.474Z,101233.00
2019-03-21T06:29:07.985Z,101232.00
2019-03-21T06:31:13.703Z,101232.00
2019-03-21T06:33:20.030Z,101235.00
2019-03-21T06:35:25.839Z,101234.00
2019-03-21T06:37:31.974Z,101230.00
2019-03-21T06:39:37.818Z,101234.00
2019-03-21T06:41:44.224Z,101235.00
2019-03-21T06:43:50.176Z,101234.00
2019-03-21T06:45:56.259Z,101224.00
2019-03-21T06:48:02.063Z,101238.00
2019-03-21T06:50:08.696Z,101228.00
2019-03-21T06:52:15.091Z,101228.00
2019-03-21T06:54:21.053Z,101228.00
2019-03-21T06:56:26.968Z,101238.00
2019-03-21T06:58:33.111Z,101234.00
2019-03-21T07:00:39.600Z,101234.00
2019-03-21T07:02:46.413Z,101238.00
2019-03-21T07:04:52.185Z,101233.00
2019-03-21T07:07:07.614Z,101225.00
2019-03-21T07:09:07.756Z,101236.00
2019-03-21T07:11:13.457Z,101235.00
2019-03-21T07:13:19.841Z,101240.00
2019-03-21T07:15:26.215Z,101240.00
2019-03-21T07:17:32.655Z,101237.00
2019-03-21T07:19:38.432Z,101233.00
2019-03-21T07:21:44.767Z,101236.00
2019-03-21T07:23:51.147Z,101229.00
2019-03-21T07:25:56.923Z,101238.00
2019-03-21T07:28:03.686Z,101239.00
2019-03-21T07:30:12.200Z,101235.00
2019-03-21T07:32:18.618Z,101228.00
2019-03-21T07:34:25.337Z,101223.00
2019-03-21T07:36:31.459Z,101223.00
2019-03-21T07:38:37.638Z,101227.00
2019-03-21T07:40:43.922Z,101234.00
2019-03-21T07:42:49.685Z,101221.00
2019-03-21T07:44:55.653Z,101220.00
2019-03-21T07:47:12.079Z,101226.00
2019-03-21T07:49:10.015Z,101210.00
2019-03-21T07:51:16.550Z,101216.00
2019-03-21T07:53:22.572Z,101209.00
2019-03-21T07:55:28.264Z,101212.00
2019-03-21T07:57:34.377Z,101210.00
2019-03-21T07:59:40.418Z,101215.00
2019-03-21T08:01:46.401Z,101215.00
2019-03-21T08:03:52.798Z,101210.00
2019-03-21T08:05:58.814Z,101206.00
2019-03-21T08:08:04.628Z,101219.00
2019-03-21T08:10:11.040Z,101206.00
2019-03-21T08:12:17.608Z,101210.00
2019-03-21T08:14:23.655Z,101207.00
2019-03-21T08:16:30.066Z,101205.00
2019-03-21T08:18:36.780Z,101203.00
2019-03-21T08:20:43.033Z,101198.00
2019-03-21T08:22:49.419Z,101194.00
2019-03-21T08:24:55.861Z,101207.00
2019-03-21T08:27:01.825Z,101208.00
2019-03-21T08:29:08.437Z,101197.00
2019-03-21T08:31:18.937Z,101201.00
2019-03-21T08:33:24.778Z,101191.00
2019-03-21T08:35:30.772Z,101195.00
2019-03-21T08:37:36.915Z,101198.00
2019-03-21T08:39:42.682Z,101188.00
2019-03-21T08:41:48.873Z,101197.00
2019-03-21T08:43:55.016Z,101193.00
2019-03-21T08:46:01.432Z,101201.00
2019-03-21T08:48:07.724Z,101196.00
2019-03-21T08:50:14.359Z,101199.00
2019-03-21T08:52:20.137Z,101194.00
2019-03-21T08:54:26.359Z,101185.00
2019-03-21T08:56:32.725Z,101189.00
2019-03-21T08:58:38.906Z,101199.00
2019-03-21T09:00:45.285Z,101192.00
2019-03-21T09:02:51.550Z,101188.00
2019-03-21T09:04:59.775Z,101192.00
2019-03-21T09:07:05.653Z,101188.00
2019-03-21T09:09:12.249Z,101190.00
2019-03-21T09:11:18.676Z,101183.00
2019-03-21T09:13:24.998Z,101179.00
2019-03-21T09:15:31.177Z,101185.00
2019-03-21T09:17:36.975Z,101187.00
2019-03-21T09:19:43.127Z,101185.00
2019-03-21T09:21:49.210Z,101177.00
2019-03-21T09:23:55.294Z,101174.00
2019-03-21T09:26:01.567Z,101168.00
2019-03-21T09:28:08.139Z,101173.00
2019-03-21T09:30:14.258Z,101170.00
2019-03-21T09:32:20.430Z,101175.00
2019-03-21T09:34:26.631Z,101175.00
2019-03-21T09:36:33.410Z,101175.00
2019-03-21T09:38:39.689Z,101169.00
2019-03-21T09:40:46.037Z,101170.00
2019-03-21T09:42:52.467Z,101166.00
2019-03-21T09:44:58.272Z,101169.00
2019-03-21T09:47:04.010Z,101170.00
2019-03-21T09:49:10.348Z,101164.00
2019-03-21T09:51:17.004Z,101172.00
2019-03-21T09:53:22.793Z,101171.00
2019-03-21T09:55:28.607Z,101165.00
2019-03-21T09:57:34.517Z,101164.00
2019-03-21T09:59:40.236Z,101157.00
2019-03-21T10:01:46.116Z,101161.00
2019-03-21T10:03:52.776Z,101166.00
2019-03-21T10:05:59.115Z,101167.00
2019-03-21T10:08:05.838Z,101170.00
2019-03-21T10:10:16.814Z,101178.00
2019-03-21T10:12:22.814Z,101179.00
2019-03-21T10:14:29.243Z,101176.00
2019-03-21T10:16:35.115Z,101177.00
2019-03-21T10:18:40.995Z,101177.00
2019-03-21T10:20:47.156Z,101178.00
2019-03-21T10:22:53.276Z,101183.00
2019-03-21T10:24:59.772Z,101176.00
2019-03-21T10:27:05.790Z,101175.00
2019-03-21T10:29:12.267Z,101169.00
2019-03-21T10:31:18.487Z,101170.00
2019-03-21T10:33:24.250Z,101176.00
2019-03-21T10:35:32.573Z,101165.00
2019-03-21T10:37:38.437Z,101164.00
2019-03-21T10:39:45.306Z,101166.00
2019-03-21T10:41:51.369Z,101164.00
2019-03-21T10:43:57.781Z,101168.00
2019-03-21T10:46:03.966Z,101164.00
2019-03-21T10:48:09.875Z,101164.00
2019-03-21T10:50:19.446Z,101163.00
2019-03-21T10:52:25.646Z,101162.00
2019-03-21T10:54:32.017Z,101155.00
2019-03-21T10:56:39.418Z,101171.00
2019-03-21T10:58:45.583Z,101166.00
2019-03-21T11:00:51.482Z,101169.00
2019-03-21T11:02:57.766Z,101163.00
2019-03-21T11:05:03.874Z,101168.00
2019-03-21T11:07:06.788Z,101162.00
2019-03-21T11:09:13.860Z,101165.00
2019-03-21T11:11:19.705Z,101162.00
2019-03-21T11:13:26.784Z,101162.00
2019-03-21T11:15:33.485Z,101162.00
2019-03-21T11:17:40.088Z,101154.00
2019-03-21T11:19:46.624Z,101156.00
2019-03-21T11:21:52.966Z,101152.00
2019-03-21T11:23:59.023Z,101143.00
2019-03-21T11:26:04.963Z,101137.00
2019-03-21T11:28:11.768Z,101141.00
2019-03-21T11:30:23.877Z,101142.00
2019-03-21T11:32:30.270Z,101142.00
2019-03-21T11:34:36.707Z,101142.00
2019-03-21T11:36:42.727Z,101139.00
2019-03-21T11:38:48.443Z,101140.00
2019-03-21T11:40:54.268Z,101136.00
2019-03-21T11:43:01.529Z,101133.00
2019-03-21T11:45:08.361Z,101130.00
2019-03-21T11:47:14.449Z,101131.00
2019-03-21T11:49:20.738Z,101121.00
2019-03-21T11:51:26.800Z,101120.00
2019-03-21T11:53:33.271Z,101124.00
2019-03-21T11:55:39.754Z,101118.00
2019-03-21T11:57:45.474Z,101113.00
2019-03-21T11:59:52.407Z,101118.00
2019-03-21T12:01:58.962Z,101110.00
2019-03-21T12:04:05.383Z,101119.00
2019-03-21T12:06:11.495Z,101114.00
2019-03-21T12:08:18.271Z,101112.00
2019-03-21T12:10:24.527Z,101110.00
2019-03-21T12:12:31.010Z,101113.00
2019-03-21T12:14:37.378Z,101115.00
2019-03-21T12:16:43.774Z,101117.00
2019-03-21T12:18:49.610Z,101110.00
2019-03-21T12:20:56.131Z,101108.00
2019-03-21T12:23:01.917Z,101102.00
2019-03-21T12:25:08.430Z,101102.00
2019-03-21T12:27:15.231Z,101101.00
2019-03-21T12:29:21.240Z,101099.00
2019-03-21T12:31:27.022Z,101095.00
2019-03-21T12:33:33.493Z,101092.00
2019-03-21T12:35:40.923Z,101083.00
2019-03-21T12:37:46.672Z,101086.00
2019-03-21T12:39:52.448Z,101076.00
2019-03-21T12:41:59.325Z,101077.00
2019-03-21T12:44:05.110Z,101080.00
2019-03-21T12:46:11.278Z,101075.00
2019-03-21T12:48:17.961Z,101078.00
2019-03-21T12:50:24.018Z,101080.00
2019-03-21T12:52:40.990Z,101083.00
2019-03-21T12:54:38.737Z,101081.00
2019-03-21T12:56:44.819Z,101078.00
2019-03-21T12:58:50.859Z,101075.00
2019-03-21T13:00:56.726Z,101069.00
2019-03-21T13:03:02.539Z,101076.00
2019-03-21T13:05:11.328Z,101069.00
2019-03-21T13:07:17.371Z,101064.00
2019-03-21T13:09:25.566Z,101058.00
2019-03-21T13:11:31.261Z,101068.00
2019-03-21T13:13:38.333Z,101059.00
2019-03-21T13:15:44.857Z,101053.00
2019-03-21T13:17:50.878Z,101050.00
2019-03-21T13:19:57.173Z,101051.00
2019-03-21T13:22:03.955Z,101047.00
2019-03-21T13:24:10.841Z,101043.00
2019-03-21T13:26:17.804Z,101042.00
2019-03-21T13:28:24.197Z,101042.00
2019-03-21T13:30:30.688Z,101037.00
2019-03-21T13:32:36.451Z,101035.00
2019-03-21T13:34:43.462Z,101039.00
2019-03-21T13:36:49.646Z,101030.00
2019-03-21T13:38:55.763Z,101028.00
2019-03-21T13:41:02.515Z,101036.00
2019-03-21T13:43:11.249Z,101025.00
2019-03-21T13:45:17.844Z,101019.00
2019-03-21T13:47:23.931Z,101025.00
2019-03-21T13:49:30.082Z,101025.00
2019-03-21T13:51:36.595Z,101025.00
2019-03-21T13:53:43.171Z,101018.00
2019-03-21T13:55:49.322Z,101021.00
2019-03-21T13:57:55.309Z,101017.00
2019-03-21T14:00:01.692Z,101015.00
2019-03-21T14:02:07.402Z,101017.00
2019-03-21T14:04:14.157Z,101009.00
2019-03-21T14:06:20.310Z,101009.00
2019-03-21T14:08:26.056Z,101010.00
2019-03-21T14:10:32.537Z,101006.00
2019-03-21T14:12:38.844Z,101004.00
2019-03-21T14:14:44.940Z,100995.00
2019-03-21T14:16:51.166Z,100990.00
2019-03-21T14:18:57.899Z,100991.00
2019-03-21T14:21:03.937Z,100990.00
2019-03-21T14:23:16.922Z,100988.00
2019-03-21T14:25:20.308Z,100989.00
2019-03-21T14:27:26.333Z,100990.00
2019-03-21T14:29:32.676Z,100987.00
2019-03-21T14:31:39.054Z,100985.00
2019-03-21T14:33:45.597Z,100982.00
2019-03-21T14:35:51.616Z,100992.00
2019-03-21T14:37:58.093Z,100974.00
2019-03-21T14:40:04.700Z,100972.00
2019-03-21T14:42:11.160Z,100976.00
2019-03-21T14:44:16.941Z,100967.00
2019-03-21T14:46:22.642Z,100976.00
2019-03-21T14:48:28.602Z,100978.00
2019-03-21T14:50:34.313Z,100979.00
2019-03-21T14:52:41.328Z,100974.00
2019-03-21T14:54:47.733Z,100979.00
2019-03-21T14:56:54.092Z,100975.00
2019-03-21T14:59:00.190Z,100982.00
2019-03-21T15:01:06.442Z,100970.00
2019-03-21T15:03:12.838Z,100983.00
2019-03-21T15:05:19.150Z,100977.00
2019-03-21T15:07:25.206Z,100982.00
2019-03-21T15:09:31.357Z,100982.00
2019-03-21T15:11:37.294Z,100984.00
2019-03-21T15:13:43.633Z,100982.00
2019-03-21T15:15:49.343Z,100981.00
2019-03-21T15:17:58.481Z,100970.00
2019-03-21T15:20:05.475Z,100967.00
2019-03-21T15:22:11.494Z,100974.00
2019-03-21T15:24:17.895Z,100978.00
2019-03-21T15:26:23.931Z,100958.00
2019-03-21T15:28:29.965Z,100960.00
2019-03-21T15:30:35.822Z,100968.00
2019-03-21T15:32:42.505Z,100963.00
2019-03-21T15:34:51.166Z,100960.00
2019-03-21T15:36:57.473Z,100961.00
2019-03-21T15:39:04.428Z,100953.00
2019-03-21T15:41:10.092Z,100962.00
2019-03-21T15:43:15.827Z,100958.00
2019-03-21T15:45:23.746Z,100956.00
2019-03-21T15:47:30.342Z,100957.00
2019-03-21T15:49:36.367Z,100957.00
2019-03-21T15:51:42.305Z,100953.00
2019-03-21T15:53:54.748Z,100947.00
2019-03-21T15:55:55.574Z,100950.00
2019-03-21T15:58:01.456Z,100948.00
2019-03-21T16:00:10.272Z,100953.00
2019-03-21T16:02:16.870Z,100955.00
2019-03-21T16:04:23.006Z,100957.00
2019-03-21T16:06:29.447Z,100955.00
2019-03-21T16:08:35.413Z,100955.00
2019-03-21T16:10:41.235Z,100951.00
2019-03-21T16:12:47.512Z,100952.00
2019-03-21T16:14:54.504Z,100943.00
2019-03-21T16:17:00.277Z,100940.00
2019-03-21T16:19:05.979Z,100951.00
2019-03-21T16:21:11.728Z,100940.00
2019-03-21T16:23:18.023Z,100943.00
2019-03-21T16:25:24.765Z,100950.00
2019-03-21T16:27:30.869Z,100948.00
2019-03-21T16:29:37.010Z,100950.00
2019-03-21T16:31:42.910Z,100956.00
2019-03-21T16:33:49.158Z,100944.00
2019-03-21T16:35:56.322Z,100946.00
2019-03-21T16:38:02.682Z,100949.00
2019-03-21T16:40:09.587Z,100946.00
2019-03-21T16:42:15.471Z,100946.00
2019-03-21T16:44:22.025Z,100945.00
2019-03-21T16:46:29.015Z,100951.00
2019-03-21T16:48:35.320Z,100944.00
2019-03-21T16:50:41.244Z,100948.00
2019-03-21T16:52:46.997Z,100946.00
2019-03-21T16:54:53.217Z,100951.00
2019-03-21T16:56:59.271Z,100947.00
2019-03-21T16:59:05.109Z,100951.00
2019-03-21T17:01:11.109Z,100952.00
2019-03-21T17:03:17.013Z,100952.00
2019-03-21T17:05:23.053Z,100958.00
2019-03-21T17:07:28.821Z,100955.00
2019-03-21T17:09:36.182Z,100962.00
2019-03-21T17:11:42.158Z,100950.00
2019-03-21T17:13:48.995Z,100944.00
2019-03-21T17:15:54.658Z,100949.00
2019-03-21T17:18:00.448Z,100960.00
2019-03-21T17:20:07.124Z,100952.00
2019-03-21T17:22:12.967Z,100964.00
2019-03-21T17:24:28.890Z,100953.00
2019-03-21T17:26:26.748Z,100958.00
2019-03-21T17:28:32.738Z,100955.00
2019-03-21T17:30:38.519Z,100952.00
2019-03-21T17:32:44.282Z,100957.00
2019-03-21T17:34:50.583Z,100957.00
2019-03-21T17:36:56.673Z,100966.00
2019-03-21T17:39:02.607Z,100963.00
2019-03-21T17:41:08.627Z,100959.00
2019-03-21T17:43:14.345Z,100979.00
2019-03-21T17:45:21.565Z,100981.00
2019-03-21T17:47:27.755Z,100978.00
2019-03-21T17:49:34.809Z,100980.00
2019-03-21T17:51:40.943Z,100975.00
2019-03-21T17:53:46.948Z,100975.00
2019-03-21T17:55:52.758Z,100984.00
2019-03-21T17:57:58.458Z,100985.00
2019-03-21T18:00:05.595Z,100987.00
2019-03-21T18:02:12.420Z,100977.00
2019-03-21T18:04:18.571Z,100980.00
2019-03-21T18:06:24.272Z,100980.00
2019-03-21T18:08:30.704Z,100979.00
2019-03-21T18:10:36.711Z,100982.00
2019-03-21T18:12:42.381Z,100985.00
2019-03-21T18:14:48.854Z,100997.00
2019-03-21T18:16:54.922Z,100997.00
2019-03-21T18:19:01.212Z,100995.00
2019-03-21T18:21:07.079Z,101002.00
2019-03-21T18:23:13.344Z,101006.00
2019-03-21T18:25:19.854Z,101000.00
2019-03-21T18:27:26.301Z,100997.00
2019-03-21T18:29:32.381Z,100996.00
2019-03-21T18:31:38.070Z,100997.00
2019-03-21T18:33:43.748Z,100995.00
2019-03-21T18:35:49.549Z,101008.00
2019-03-21T18:37:55.607Z,101003.00
2019-03-21T18:40:02.423Z,101009.00
2019-03-21T18:42:08.450Z,101009.00
2019-03-21T18:44:14.845Z,101003.00
2019-03-21T18:46:21.187Z,101021.00
2019-03-21T18:48:27.633Z,101015.00
2019-03-21T18:50:33.618Z,101016.00
2019-03-21T18:52:40.091Z,101016.00
2019-03-21T18:54:46.032Z,101015.00
2019-03-21T18:56:51.805Z,101022.00
2019-03-21T18:58:57.598Z,101021.00
2019-03-21T19:01:03.730Z,101021.00
2019-03-21T19:03:09.691Z,101029.00
2019-03-21T19:05:15.660Z,101026.00
2019-03-21T19:07:21.906Z,101025.00
2019-03-21T19:09:27.901Z,101025.00
2019-03-21T19:11:33.562Z,101017.00
2019-03-21T19:13:40.346Z,101010.00
2019-03-21T19:15:46.149Z,101021.00
2019-03-21T19:17:51.889Z,101025.00
2019-03-21T19:19:57.996Z,101017.00
2019-03-21T19:22:03.839Z,101028.00
2019-03-21T19:24:11.607Z,101023.00
2019-03-21T19:26:17.819Z,101028.00
2019-03-21T19:28:24.298Z,101026.00
2019-03-21T19:30:30.067Z,101029.00
2019-03-21T19:32:35.740Z,101027.00
2019-03-21T19:34:42.332Z,101030.00
2019-03-21T19:36:48.625Z,101037.00
2019-03-21T19:38:55.048Z,101034.00
2019-03-21T19:41:01.067Z,101026.00
2019-03-21T19:43:07.169Z,101022.00
2019-03-21T19:45:13.421Z,101022.00
2019-03-21T19:47:24.886Z,101028.00
2019-03-21T19:49:26.597Z,101032.00
2019-03-21T19:51:33.488Z,101024.00
2019-03-21T19:53:39.480Z,101033.00
2019-03-21T19:55:45.257Z,101032.00
2019-03-21T19:57:51.350Z,101027.00
2019-03-21T19:59:57.379Z,101027.00
2019-03-21T20:02:03.161Z,101030.00
2019-03-21T20:04:08.917Z,101034.00
2019-03-21T20:06:15.112Z,101037.00
2019-03-21T20:08:20.795Z,101040.00
2019-03-21T20:10:33.106Z,101031.00
2019-03-21T20:12:39.311Z,101026.00
2019-03-21T20:14:45.386Z,101031.00
2019-03-21T20:16:51.703Z,101027.00
2019-03-21T20:18:58.105Z,101034.00
2019-03-21T20:21:04.441Z,101025.00
2019-03-21T20:23:11.169Z,101019.00
2019-03-21T20:25:17.880Z,101026.00
2019-03-21T20:27:24.470Z,101033.00
2019-03-21T20:29:31.340Z,101034.00
2019-03-21T20:31:38.029Z,101034.00
2019-03-21T20:33:45.083Z,101036.00
2019-03-21T20:35:54.996Z,101031.00
2019-03-21T20:38:02.711Z,101036.00
2019-03-21T20:40:10.777Z,101040.00
2019-03-21T20:42:18.334Z,101032.00
2019-03-21T20:44:24.609Z,101039.00
2019-03-21T20:46:31.028Z,101041.00
2019-03-21T20:48:33.971Z,101038.00
2019-03-21T20:50:40.894Z,101030.00
2019-03-21T20:52:47.574Z,101025.00
2019-03-21T20:54:53.260Z,101026.00
2019-03-21T20:56:59.609Z,101028.00
2019-03-21T20:59:05.628Z,101032.00
2019-03-21T21:01:11.850Z,101029.00
2019-03-21T21:03:17.971Z,101022.00
2019-03-21T21:05:26.406Z,101028.00
2019-03-21T21:07:32.325Z,101028.00
2019-03-21T21:09:38.151Z,101018.00
2019-03-21T21:11:43.968Z,101021.00
2019-03-21T21:13:50.142Z,101023.00
2019-03-21T21:15:56.225Z,101022.00
2019-03-21T21:18:02.441Z,101015.00
2019-03-21T21:20:09.319Z,101017.00
2019-03-21T21:22:15.701Z,101012.00
2019-03-21T21:24:21.727Z,101015.00
2019-03-21T21:26:27.720Z,101013.00
2019-03-21T21:28:34.892Z,101014.00
2019-03-21T21:30:40.699Z,101014.00
2019-03-21T21:32:46.778Z,101019.00
2019-03-21T21:34:54.630Z,101016.00
2019-03-21T21:37:00.105Z,101022.00
2019-03-21T21:39:08.622Z,101015.00
2019-03-21T21:41:15.042Z,101013.00
2019-03-21T21:43:22.278Z,101008.00
2019-03-21T21:45:28.281Z,101023.00
2019-03-21T21:47:34.043Z,101013.00
2019-03-21T21:49:39.745Z,101016.00
2019-03-21T21:51:45.531Z,101014.00
2019-03-21T21:53:51.272Z,101012.00
2019-03-21T21:55:57.773Z,101009.00
2019-03-21T21:58:03.807Z,101009.00
2019-03-21T22:00:12.616Z,101016.00
2019-03-21T22:02:18.660Z,101006.00
2019-03-21T22:04:26.511Z,101008.00
2019-03-21T22:06:32.143Z,101014.00
2019-03-21T22:08:37.949Z,101012.00
2019-03-21T22:10:43.619Z,101009.00
2019-03-21T22:12:49.506Z,101009.00
2019-03-21T22:14:55.308Z,101005.00
2019-03-21T22:17:01.532Z,101006.00
2019-03-21T22:19:07.610Z,101004.00
2019-03-21T22:21:14.262Z,101006.00
2019-03-21T22:23:20.317Z,101003.00
2019-03-21T22:25:26.535Z,101013.00
2019-03-21T22:27:32.223Z,101013.00
2019-03-21T22:29:38.536Z,101016.00
2019-03-21T22:31:44.518Z,101004.00
2019-03-21T22:33:50.875Z,101005.00
2019-03-21T22:35:56.639Z,101013.00
2019-03-21T22:38:02.665Z,101007.00
2019-03-21T22:40:10.613Z,101011.00
2019-03-21T22:42:16.282Z,100995.00
2019-03-21T22:44:22.447Z,101003.00
2019-03-21T22:46:28.207Z,100997.00
2019-03-21T22:48:34.347Z,101007.00
2019-03-21T22:50:40.346Z,101002.00
2019-03-21T22:52:46.529Z,101004.00
2019-03-21T22:54:52.890Z,101004.00
2019-03-21T22:56:58.848Z,101007.00
2019-03-21T22:59:04.729Z,100998.00
2019-03-21T23:01:11.018Z,100997.00
2019-03-21T23:03:17.417Z,100993.00
2019-03-21T23:05:23.501Z,100997.00
2019-03-21T23:07:29.818Z,100989.00
2019-03-21T23:09:35.922Z,100993.00
2019-03-21T23:11:41.656Z,100994.00
2019-03-21T23:13:48.068Z,100988.00
2019-03-21T23:15:53.879Z,100988.00
2019-03-21T23:17:59.855Z,100993.00
2019-03-21T23:20:06.749Z,100994.00
2019-03-21T23:22:12.886Z,100986.00
2019-03-21T23:24:18.604Z,100992.00
2019-03-21T23:26:25.073Z,100986.00
2019-03-21T23:28:31.395Z,100989.00
2019-03-21T23:30:37.710Z,100987.00
2019-03-21T23:32:44.123Z,100993.00
2019-03-21T23:34:49.863Z,100984.00
2019-03-21T23:36:55.604Z,100985.00
2019-03-21T23:39:01.771Z,100984.00
2019-03-21T23:41:08.074Z,100985.00
2019-03-21T23:43:13.832Z,100978.00
2019-03-21T23:45:20.232Z,100976.00
2019-03-21T23:47:26.943Z,100965.00
2019-03-21T23:49:32.991Z,100977.00
2019-03-21T23:51:38.837Z,100965.00
2019-03-21T23:53:44.598Z,100966.00
2019-03-21T23:55:50.694Z,100963.00
2019-03-21T23:57:57.287Z,100956.00
